Terminal Aerodrome Forecast
Issued by NWS

Home | Current Version | Previous Version | Text Only | Print | Product List | Glossary On
Versions: 1 2 3 4 5 6 7 8 9 10 11 12 13 14 15 16 17 18
000
FTUS43 KMQT 041120
TAFCMX
TAF
KCMX 041120Z 0412/0512 19005KT P6SM OVC040
     FM041600 17009KT 6SM -SN OVC045
     FM041800 17009KT 4SM -SN OVC040
     FM042000 16009KT 3SM -SN OVC020
     FM042100 15009KT 1SM -SN OVC008
     FM050400 20007KT 2SM -SN OVC015
     FM050600 23008KT P6SM OVC020
     FM050800 25012G22KT P6SM OVC020=

USA.gov is the U.S. government's official web portal to all federal, state and local government web resources and services.